sensor_id;sensor_type;location;lat;lon;timestamp;P1;durP1;ratioP1;P2;durP2;ratioP2
11504;SDS011;5809;53.262;10.408;2024-01-27T00:01:03;29.93;;;4.90;;
11504;SDS011;5809;53.262;10.408;2024-01-27T00:03:30;18.73;;;4.90;;
11504;SDS011;5809;53.262;10.408;2024-01-27T00:05:57;25.80;;;4.57;;
11504;SDS011;5809;53.262;10.408;2024-01-27T00:08:24;20.70;;;4.30;;
11504;SDS011;5809;53.262;10.408;2024-01-27T00:10:51;29.40;;;4.30;;
11504;SDS011;5809;53.262;10.408;2024-01-27T00:13:19;24.33;;;4.17;;
11504;SDS011;5809;53.262;10.408;2024-01-27T00:15:46;25.13;;;5.13;;
11504;SDS011;5809;53.262;10.408;2024-01-27T00:18:14;24.70;;;4.90;;
11504;SDS011;5809;53.262;10.408;2024-01-27T00:20:41;23.10;;;4.40;;
11504;SDS011;5809;53.262;10.408;2024-01-27T00:23:08;27.33;;;4.97;;
11504;SDS011;5809;53.262;10.408;2024-01-27T00:25:35;25.00;;;4.87;;
11504;SDS011;5809;53.262;10.408;2024-01-27T00:28:02;20.27;;;4.33;;
11504;SDS011;5809;53.262;10.408;2024-01-27T00:30:31;25.50;;;4.50;;
11504;SDS011;5809;53.262;10.408;2024-01-27T00:32:58;28.30;;;5.27;;
11504;SDS011;5809;53.262;10.408;2024-01-27T00:35:24;30.47;;;5.90;;
11504;SDS011;5809;53.262;10.408;2024-01-27T00:37:52;27.10;;;4.83;;
11504;SDS011;5809;53.262;10.408;2024-01-27T00:40:19;21.07;;;4.43;;
11504;SDS011;5809;53.262;10.408;2024-01-27T00:42:46;31.43;;;4.87;;
11504;SDS011;5809;53.262;10.408;2024-01-27T00:45:13;24.80;;;5.37;;
11504;SDS011;5809;53.262;10.408;2024-01-27T00:47:41;30.37;;;5.07;;
11504;SDS011;5809;53.262;10.408;2024-01-27T00:50:08;26.43;;;4.90;;
11504;SDS011;5809;53.262;10.408;2024-01-27T00:52:36;21.33;;;5.27;;
11504;SDS011;5809;53.262;10.408;2024-01-27T00:55:03;27.13;;;4.97;;
11504;SDS011;5809;53.262;10.408;2024-01-27T00:57:30;28.30;;;5.50;;
11504;SDS011;5809;53.262;10.408;2024-01-27T00:59:57;27.93;;;5.20;;
11504;SDS011;5809;53.262;10.408;2024-01-27T01:02:24;31.57;;;5.83;;
11504;SDS011;5809;53.262;10.408;2024-01-27T01:04:52;28.93;;;5.40;;
11504;SDS011;5809;53.262;10.408;2024-01-27T01:07:19;31.23;;;5.10;;
11504;SDS011;5809;53.262;10.408;2024-01-27T01:09:46;18.13;;;4.33;;
11504;SDS011;5809;53.262;10.408;2024-01-27T01:12:13;25.10;;;4.67;;
11504;SDS011;5809;53.262;10.408;2024-01-27T01:14:41;25.03;;;4.83;;
11504;SDS011;5809;53.262;10.408;2024-01-27T01:17:08;26.77;;;4.50;;
11504;SDS011;5809;53.262;10.408;2024-01-27T01:19:35;26.93;;;4.47;;
11504;SDS011;5809;53.262;10.408;2024-01-27T01:22:04;18.67;;;3.90;;
11504;SDS011;5809;53.262;10.408;2024-01-27T01:24:32;24.63;;;4.37;;
11504;SDS011;5809;53.262;10.408;2024-01-27T01:26:59;23.90;;;4.10;;
11504;SDS011;5809;53.262;10.408;2024-01-27T01:29:26;30.13;;;4.87;;
11504;SDS011;5809;53.262;10.408;2024-01-27T01:31:53;29.70;;;4.90;;
11504;SDS011;5809;53.262;10.408;2024-01-27T01:34:19;28.33;;;4.97;;
11504;SDS011;5809;53.262;10.408;2024-01-27T01:36:47;26.13;;;4.50;;
11504;SDS011;5809;53.262;10.408;2024-01-27T01:39:14;27.17;;;4.60;;
11504;SDS011;5809;53.262;10.408;2024-01-27T01:41:41;27.70;;;4.63;;
11504;SDS011;5809;53.262;10.408;2024-01-27T01:44:08;31.57;;;5.00;;
11504;SDS011;5809;53.262;10.408;2024-01-27T01:46:34;33.53;;;4.27;;
11504;SDS011;5809;53.262;10.408;2024-01-27T01:49:01;27.17;;;4.77;;
11504;SDS011;5809;53.262;10.408;2024-01-27T01:51:29;26.17;;;4.07;;
11504;SDS011;5809;53.262;10.408;2024-01-27T01:53:57;32.33;;;4.83;;
11504;SDS011;5809;53.262;10.408;2024-01-27T01:56:26;23.70;;;4.50;;
11504;SDS011;5809;53.262;10.408;2024-01-27T01:58:53;24.97;;;4.03;;
11504;SDS011;5809;53.262;10.408;2024-01-27T02:01:20;27.13;;;4.57;;
11504;SDS011;5809;53.262;10.408;2024-01-27T02:03:51;22.00;;;4.20;;
11504;SDS011;5809;53.262;10.408;2024-01-27T02:06:19;25.37;;;4.23;;
11504;SDS011;5809;53.262;10.408;2024-01-27T02:08:47;25.40;;;4.13;;
11504;SDS011;5809;53.262;10.408;2024-01-27T02:11:14;22.23;;;4.03;;
11504;SDS011;5809;53.262;10.408;2024-01-27T02:13:42;23.73;;;5.10;;
11504;SDS011;5809;53.262;10.408;2024-01-27T02:16:10;30.30;;;4.90;;
11504;SDS011;5809;53.262;10.408;2024-01-27T02:18:37;22.53;;;4.30;;
11504;SDS011;5809;53.262;10.408;2024-01-27T02:21:04;18.57;;;4.20;;
11504;SDS011;5809;53.262;10.408;2024-01-27T02:23:31;19.30;;;4.40;;
11504;SDS011;5809;53.262;10.408;2024-01-27T02:25:59;20.20;;;4.10;;
11504;SDS011;5809;53.262;10.408;2024-01-27T02:28:26;25.23;;;4.73;;
11504;SDS011;5809;53.262;10.408;2024-01-27T02:30:57;21.83;;;4.33;;
11504;SDS011;5809;53.262;10.408;2024-01-27T02:33:24;24.33;;;4.10;;
11504;SDS011;5809;53.262;10.408;2024-01-27T02:35:51;26.00;;;4.80;;
11504;SDS011;5809;53.262;10.408;2024-01-27T02:38:18;18.60;;;4.57;;
11504;SDS011;5809;53.262;10.408;2024-01-27T02:40:45;23.57;;;4.40;;
11504;SDS011;5809;53.262;10.408;2024-01-27T02:43:13;24.77;;;4.43;;
11504;SDS011;5809;53.262;10.408;2024-01-27T02:45:40;20.43;;;3.53;;
11504;SDS011;5809;53.262;10.408;2024-01-27T02:48:07;25.30;;;4.07;;
11504;SDS011;5809;53.262;10.408;2024-01-27T02:50:34;26.63;;;4.60;;
11504;SDS011;5809;53.262;10.408;2024-01-27T02:53:01;22.10;;;4.67;;
11504;SDS011;5809;53.262;10.408;2024-01-27T02:55:28;25.43;;;4.10;;
11504;SDS011;5809;53.262;10.408;2024-01-27T02:57:54;25.30;;;3.83;;
11504;SDS011;5809;53.262;10.408;2024-01-27T03:00:22;20.33;;;3.77;;
11504;SDS011;5809;53.262;10.408;2024-01-27T03:02:49;24.13;;;4.40;;
11504;SDS011;5809;53.262;10.408;2024-01-27T03:05:16;25.73;;;4.00;;
11504;SDS011;5809;53.262;10.408;2024-01-27T03:07:43;29.40;;;4.20;;
11504;SDS011;5809;53.262;10.408;2024-01-27T03:10:09;25.57;;;4.37;;
11504;SDS011;5809;53.262;10.408;2024-01-27T03:12:37;21.73;;;3.70;;
11504;SDS011;5809;53.262;10.408;2024-01-27T03:15:04;26.27;;;4.70;;
11504;SDS011;5809;53.262;10.408;2024-01-27T03:17:32;25.20;;;4.17;;
11504;SDS011;5809;53.262;10.408;2024-01-27T03:19:59;17.80;;;4.20;;
11504;SDS011;5809;53.262;10.408;2024-01-27T03:22:26;27.53;;;4.40;;
11504;SDS011;5809;53.262;10.408;2024-01-27T03:24:53;24.10;;;3.67;;
11504;SDS011;5809;53.262;10.408;2024-01-27T03:27:20;20.33;;;4.40;;
11504;SDS011;5809;53.262;10.408;2024-01-27T03:29:47;24.13;;;3.60;;
11504;SDS011;5809;53.262;10.408;2024-01-27T03:32:14;25.03;;;4.30;;
11504;SDS011;5809;53.262;10.408;2024-01-27T03:34:44;24.00;;;4.47;;
11504;SDS011;5809;53.262;10.408;2024-01-27T03:37:11;23.43;;;4.30;;
11504;SDS011;5809;53.262;10.408;2024-01-27T03:39:40;29.13;;;4.33;;
11504;SDS011;5809;53.262;10.408;2024-01-27T03:42:07;26.90;;;4.87;;
11504;SDS011;5809;53.262;10.408;2024-01-27T03:44:34;26.40;;;4.73;;
11504;SDS011;5809;53.262;10.408;2024-01-27T03:47:02;22.57;;;4.33;;
11504;SDS011;5809;53.262;10.408;2024-01-27T03:49:29;22.37;;;4.13;;
11504;SDS011;5809;53.262;10.408;2024-01-27T03:51:57;24.37;;;3.40;;
11504;SDS011;5809;53.262;10.408;2024-01-27T03:54:23;26.33;;;4.97;;
11504;SDS011;5809;53.262;10.408;2024-01-27T03:56:50;21.73;;;4.07;;
11504;SDS011;5809;53.262;10.408;2024-01-27T03:59:17;25.00;;;4.50;;
11504;SDS011;5809;53.262;10.408;2024-01-27T04:01:44;26.27;;;5.13;;
11504;SDS011;5809;53.262;10.408;2024-01-27T04:04:11;22.63;;;4.03;;
11504;SDS011;5809;53.262;10.408;2024-01-27T04:06:38;27.03;;;4.13;;
11504;SDS011;5809;53.262;10.408;2024-01-27T04:09:07;22.77;;;4.47;;
11504;SDS011;5809;53.262;10.408;2024-01-27T04:11:35;20.03;;;4.57;;
11504;SDS011;5809;53.262;10.408;2024-01-27T04:14:02;24.63;;;4.63;;
11504;SDS011;5809;53.262;10.408;2024-01-27T04:16:30;21.17;;;5.43;;
11504;SDS011;5809;53.262;10.408;2024-01-27T04:18:56;27.10;;;5.00;;
11504;SDS011;5809;53.262;10.408;2024-01-27T04:21:23;25.03;;;4.70;;
11504;SDS011;5809;53.262;10.408;2024-01-27T04:23:50;24.17;;;5.13;;
11504;SDS011;5809;53.262;10.408;2024-01-27T04:26:18;25.77;;;4.57;;
11504;SDS011;5809;53.262;10.408;2024-01-27T04:28:45;24.57;;;4.83;;
11504;SDS011;5809;53.262;10.408;2024-01-27T04:31:12;27.50;;;4.50;;
11504;SDS011;5809;53.262;10.408;2024-01-27T04:33:39;26.10;;;4.47;;
11504;SDS011;5809;53.262;10.408;2024-01-27T04:36:06;24.93;;;5.13;;
11504;SDS011;5809;53.262;10.408;2024-01-27T04:38:34;32.97;;;4.97;;
11504;SDS011;5809;53.262;10.408;2024-01-27T04:41:01;28.27;;;4.30;;
11504;SDS011;5809;53.262;10.408;2024-01-27T04:43:29;26.93;;;5.20;;
11504;SDS011;5809;53.262;10.408;2024-01-27T04:45:56;27.00;;;5.20;;
11504;SDS011;5809;53.262;10.408;2024-01-27T04:48:23;30.77;;;4.70;;
11504;SDS011;5809;53.262;10.408;2024-01-27T04:50:50;23.30;;;5.00;;
11504;SDS011;5809;53.262;10.408;2024-01-27T04:53:17;30.40;;;4.57;;
11504;SDS011;5809;53.262;10.408;2024-01-27T04:55:43;28.47;;;4.80;;
11504;SDS011;5809;53.262;10.408;2024-01-27T04:58:11;24.17;;;4.77;;
11504;SDS011;5809;53.262;10.408;2024-01-27T05:00:39;27.00;;;4.70;;
11504;SDS011;5809;53.262;10.408;2024-01-27T05:03:05;28.43;;;4.53;;
11504;SDS011;5809;53.262;10.408;2024-01-27T05:05:40;22.20;;;4.07;;
11504;SDS011;5809;53.262;10.408;2024-01-27T05:08:07;30.30;;;5.53;;
11504;SDS011;5809;53.262;10.408;2024-01-27T05:10:34;25.50;;;5.77;;
11504;SDS011;5809;53.262;10.408;2024-01-27T05:13:01;26.83;;;5.50;;
11504;SDS011;5809;53.262;10.408;2024-01-27T05:15:28;25.13;;;4.93;;
11504;SDS011;5809;53.262;10.408;2024-01-27T05:17:56;23.23;;;4.90;;
11504;SDS011;5809;53.262;10.408;2024-01-27T05:20:23;30.20;;;5.23;;
11504;SDS011;5809;53.262;10.408;2024-01-27T05:22:50;31.47;;;5.23;;
11504;SDS011;5809;53.262;10.408;2024-01-27T05:25:17;27.07;;;4.93;;
11504;SDS011;5809;53.262;10.408;2024-01-27T05:27:44;31.43;;;5.53;;
11504;SDS011;5809;53.262;10.408;2024-01-27T05:30:11;29.30;;;5.43;;
11504;SDS011;5809;53.262;10.408;2024-01-27T05:32:39;31.10;;;5.63;;
11504;SDS011;5809;53.262;10.408;2024-01-27T05:35:08;27.27;;;4.60;;
11504;SDS011;5809;53.262;10.408;2024-01-27T05:37:35;32.50;;;5.80;;
11504;SDS011;5809;53.262;10.408;2024-01-27T05:40:04;33.00;;;5.43;;
11504;SDS011;5809;53.262;10.408;2024-01-27T05:42:32;24.50;;;5.17;;
11504;SDS011;5809;53.262;10.408;2024-01-27T05:44:59;28.90;;;5.57;;
11504;SDS011;5809;53.262;10.408;2024-01-27T05:47:26;28.63;;;6.17;;
11504;SDS011;5809;53.262;10.408;2024-01-27T05:49:52;28.57;;;5.93;;
11504;SDS011;5809;53.262;10.408;2024-01-27T05:52:21;31.97;;;5.27;;
11504;SDS011;5809;53.262;10.408;2024-01-27T05:54:47;30.80;;;5.43;;
11504;SDS011;5809;53.262;10.408;2024-01-27T05:57:14;28.43;;;4.93;;
11504;SDS011;5809;53.262;10.408;2024-01-27T05:59:41;26.57;;;5.00;;
11504;SDS011;5809;53.262;10.408;2024-01-27T06:02:08;28.37;;;5.60;;
11504;SDS011;5809;53.262;10.408;2024-01-27T06:04:35;32.77;;;5.03;;
11504;SDS011;5809;53.262;10.408;2024-01-27T06:07:02;27.73;;;5.57;;
11504;SDS011;5809;53.262;10.408;2024-01-27T06:09:30;30.87;;;5.20;;
11504;SDS011;5809;53.262;10.408;2024-01-27T06:11:58;30.07;;;5.00;;
11504;SDS011;5809;53.262;10.408;2024-01-27T06:14:25;31.80;;;5.87;;
11504;SDS011;5809;53.262;10.408;2024-01-27T06:16:52;27.80;;;4.77;;
11504;SDS011;5809;53.262;10.408;2024-01-27T06:19:19;34.30;;;6.17;;
11504;SDS011;5809;53.262;10.408;2024-01-27T06:21:46;27.30;;;5.47;;
11504;SDS011;5809;53.262;10.408;2024-01-27T06:24:13;33.13;;;6.07;;
11504;SDS011;5809;53.262;10.408;2024-01-27T06:26:41;32.90;;;6.30;;
11504;SDS011;5809;53.262;10.408;2024-01-27T06:29:09;31.97;;;6.20;;
11504;SDS011;5809;53.262;10.408;2024-01-27T06:31:35;21.00;;;5.17;;
11504;SDS011;5809;53.262;10.408;2024-01-27T06:34:02;29.23;;;5.80;;
11504;SDS011;5809;53.262;10.408;2024-01-27T06:36:29;27.77;;;5.50;;
11504;SDS011;5809;53.262;10.408;2024-01-27T06:38:57;26.53;;;5.43;;
11504;SDS011;5809;53.262;10.408;2024-01-27T06:41:24;26.67;;;5.93;;
11504;SDS011;5809;53.262;10.408;2024-01-27T06:43:52;30.10;;;6.10;;
11504;SDS011;5809;53.262;10.408;2024-01-27T06:46:19;31.17;;;5.97;;
11504;SDS011;5809;53.262;10.408;2024-01-27T06:48:46;35.40;;;6.17;;
11504;SDS011;5809;53.262;10.408;2024-01-27T06:51:13;28.40;;;5.50;;
11504;SDS011;5809;53.262;10.408;2024-01-27T06:53:40;30.67;;;6.07;;
11504;SDS011;5809;53.262;10.408;2024-01-27T06:56:07;30.37;;;5.27;;
11504;SDS011;5809;53.262;10.408;2024-01-27T06:58:33;27.83;;;4.67;;
11504;SDS011;5809;53.262;10.408;2024-01-27T07:01:03;34.37;;;5.23;;
11504;SDS011;5809;53.262;10.408;2024-01-27T07:03:29;23.57;;;5.13;;
11504;SDS011;5809;53.262;10.408;2024-01-27T07:05:56;32.03;;;5.10;;
11504;SDS011;5809;53.262;10.408;2024-01-27T07:08:25;27.07;;;5.30;;
11504;SDS011;5809;53.262;10.408;2024-01-27T07:10:52;30.00;;;5.50;;
11504;SDS011;5809;53.262;10.408;2024-01-27T07:13:19;22.77;;;5.23;;
11504;SDS011;5809;53.262;10.408;2024-01-27T07:15:47;25.90;;;5.87;;
11504;SDS011;5809;53.262;10.408;2024-01-27T07:18:15;24.57;;;4.83;;
11504;SDS011;5809;53.262;10.408;2024-01-27T07:20:44;35.47;;;6.17;;
11504;SDS011;5809;53.262;10.408;2024-01-27T07:23:11;35.23;;;5.50;;
11504;SDS011;5809;53.262;10.408;2024-01-27T07:25:38;34.60;;;6.23;;
11504;SDS011;5809;53.262;10.408;2024-01-27T07:28:05;29.03;;;5.33;;
11504;SDS011;5809;53.262;10.408;2024-01-27T07:30:32;25.33;;;5.00;;
11504;SDS011;5809;53.262;10.408;2024-01-27T07:32:59;24.80;;;4.70;;
11504;SDS011;5809;53.262;10.408;2024-01-27T07:35:27;27.43;;;5.93;;
11504;SDS011;5809;53.262;10.408;2024-01-27T07:37:54;31.33;;;4.87;;
11504;SDS011;5809;53.262;10.408;2024-01-27T07:40:21;26.83;;;5.03;;
11504;SDS011;5809;53.262;10.408;2024-01-27T07:42:48;22.13;;;4.73;;
11504;SDS011;5809;53.262;10.408;2024-01-27T07:45:15;25.60;;;5.80;;
11504;SDS011;5809;53.262;10.408;2024-01-27T07:47:42;27.77;;;4.97;;
11504;SDS011;5809;53.262;10.408;2024-01-27T07:50:09;31.60;;;5.97;;
11504;SDS011;5809;53.262;10.408;2024-01-27T07:52:37;25.17;;;5.50;;
11504;SDS011;5809;53.262;10.408;2024-01-27T07:55:04;25.67;;;5.57;;
11504;SDS011;5809;53.262;10.408;2024-01-27T07:57:32;24.77;;;4.83;;
11504;SDS011;5809;53.262;10.408;2024-01-27T08:00:00;23.47;;;5.20;;
11504;SDS011;5809;53.262;10.408;2024-01-27T08:02:27;25.13;;;4.83;;
11504;SDS011;5809;53.262;10.408;2024-01-27T08:04:54;24.23;;;5.00;;
11504;SDS011;5809;53.262;10.408;2024-01-27T08:07:21;19.77;;;4.10;;
11504;SDS011;5809;53.262;10.408;2024-01-27T08:09:49;25.13;;;5.30;;
11504;SDS011;5809;53.262;10.408;2024-01-27T08:12:16;23.37;;;5.00;;
11504;SDS011;5809;53.262;10.408;2024-01-27T08:14:43;23.17;;;4.97;;
11504;SDS011;5809;53.262;10.408;2024-01-27T08:17:10;17.60;;;4.37;;
11504;SDS011;5809;53.262;10.408;2024-01-27T08:19:38;18.13;;;3.67;;
11504;SDS011;5809;53.262;10.408;2024-01-27T08:22:05;23.70;;;4.00;;
11504;SDS011;5809;53.262;10.408;2024-01-27T08:24:34;19.00;;;4.20;;
11504;SDS011;5809;53.262;10.408;2024-01-27T08:27:02;18.33;;;4.27;;
11504;SDS011;5809;53.262;10.408;2024-01-27T08:29:30;18.97;;;4.33;;
11504;SDS011;5809;53.262;10.408;2024-01-27T08:31:58;18.03;;;4.10;;
11504;SDS011;5809;53.262;10.408;2024-01-27T08:34:24;18.03;;;3.77;;
11504;SDS011;5809;53.262;10.408;2024-01-27T08:36:51;16.40;;;3.73;;
11504;SDS011;5809;53.262;10.408;2024-01-27T08:39:18;15.57;;;3.75;;
11504;SDS011;5809;53.262;10.408;2024-01-27T08:41:45;13.93;;;3.40;;
11504;SDS011;5809;53.262;10.408;2024-01-27T08:44:13;16.38;;;3.67;;
11504;SDS011;5809;53.262;10.408;2024-01-27T08:46:40;13.57;;;2.80;;
11504;SDS011;5809;53.262;10.408;2024-01-27T08:49:07;14.73;;;4.03;;
11504;SDS011;5809;53.262;10.408;2024-01-27T08:51:34;14.07;;;3.30;;
11504;SDS011;5809;53.262;10.408;2024-01-27T08:54:00;13.40;;;3.28;;
11504;SDS011;5809;53.262;10.408;2024-01-27T08:56:27;18.38;;;4.05;;
11504;SDS011;5809;53.262;10.408;2024-01-27T08:58:54;16.02;;;3.92;;
11504;SDS011;5809;53.262;10.408;2024-01-27T09:01:22;18.52;;;4.05;;
11504;SDS011;5809;53.262;10.408;2024-01-27T09:03:49;14.25;;;3.20;;
11504;SDS011;5809;53.262;10.408;2024-01-27T09:06:16;15.45;;;4.15;;
11504;SDS011;5809;53.262;10.408;2024-01-27T09:08:43;13.63;;;3.45;;
11504;SDS011;5809;53.262;10.408;2024-01-27T09:11:10;16.17;;;3.75;;
11504;SDS011;5809;53.262;10.408;2024-01-27T09:13:37;13.77;;;3.25;;
11504;SDS011;5809;53.262;10.408;2024-01-27T09:16:04;11.48;;;2.95;;
11504;SDS011;5809;53.262;10.408;2024-01-27T09:18:34;19.50;;;4.10;;
11504;SDS011;5809;53.262;10.408;2024-01-27T09:21:00;12.10;;;3.55;;
11504;SDS011;5809;53.262;10.408;2024-01-27T09:23:27;16.63;;;3.63;;
11504;SDS011;5809;53.262;10.408;2024-01-27T09:25:56;17.00;;;3.60;;
11504;SDS011;5809;53.262;10.408;2024-01-27T09:28:24;16.13;;;4.05;;
11504;SDS011;5809;53.262;10.408;2024-01-27T09:30:50;15.70;;;3.63;;
11504;SDS011;5809;53.262;10.408;2024-01-27T09:33:17;13.48;;;4.15;;
11504;SDS011;5809;53.262;10.408;2024-01-27T09:35:49;16.33;;;3.90;;
11504;SDS011;5809;53.262;10.408;2024-01-27T09:38:16;12.60;;;3.60;;
11504;SDS011;5809;53.262;10.408;2024-01-27T09:40:43;11.95;;;3.58;;
11504;SDS011;5809;53.262;10.408;2024-01-27T09:43:11;16.45;;;4.00;;
11504;SDS011;5809;53.262;10.408;2024-01-27T09:45:39;13.90;;;3.55;;
11504;SDS011;5809;53.262;10.408;2024-01-27T09:48:07;14.30;;;3.47;;
11504;SDS011;5809;53.262;10.408;2024-01-27T09:50:36;14.88;;;3.38;;
11504;SDS011;5809;53.262;10.408;2024-01-27T09:53:06;12.73;;;3.28;;
11504;SDS011;5809;53.262;10.408;2024-01-27T09:55:34;14.25;;;3.58;;
11504;SDS011;5809;53.262;10.408;2024-01-27T09:58:01;12.25;;;3.33;;
11504;SDS011;5809;53.262;10.408;2024-01-27T10:00:29;11.25;;;3.55;;
11504;SDS011;5809;53.262;10.408;2024-01-27T10:02:57;16.10;;;3.58;;
11504;SDS011;5809;53.262;10.408;2024-01-27T10:05:24;18.40;;;3.95;;
11504;SDS011;5809;53.262;10.408;2024-01-27T10:07:53;12.50;;;3.17;;
11504;SDS011;5809;53.262;10.408;2024-01-27T10:10:21;13.27;;;3.08;;
11504;SDS011;5809;53.262;10.408;2024-01-27T10:12:48;14.15;;;3.42;;
11504;SDS011;5809;53.262;10.408;2024-01-27T10:15:18;15.15;;;4.10;;
11504;SDS011;5809;53.262;10.408;2024-01-27T10:17:45;18.85;;;3.92;;
11504;SDS011;5809;53.262;10.408;2024-01-27T10:20:12;18.35;;;4.43;;
11504;SDS011;5809;53.262;10.408;2024-01-27T10:22:41;16.00;;;3.83;;
11504;SDS011;5809;53.262;10.408;2024-01-27T10:25:09;13.75;;;2.92;;
11504;SDS011;5809;53.262;10.408;2024-01-27T10:27:38;14.32;;;2.90;;
11504;SDS011;5809;53.262;10.408;2024-01-27T10:30:05;14.77;;;4.05;;
11504;SDS011;5809;53.262;10.408;2024-01-27T10:32:41;15.48;;;3.58;;
11504;SDS011;5809;53.262;10.408;2024-01-27T10:35:08;19.73;;;4.38;;
11504;SDS011;5809;53.262;10.408;2024-01-27T10:37:35;14.00;;;3.50;;
11504;SDS011;5809;53.262;10.408;2024-01-27T10:40:02;12.95;;;3.33;;
11504;SDS011;5809;53.262;10.408;2024-01-27T10:42:30;13.90;;;2.90;;
11504;SDS011;5809;53.262;10.408;2024-01-27T10:44:59;15.05;;;3.63;;
11504;SDS011;5809;53.262;10.408;2024-01-27T10:47:27;14.45;;;3.17;;
11504;SDS011;5809;53.262;10.408;2024-01-27T10:49:55;16.67;;;3.70;;
11504;SDS011;5809;53.262;10.408;2024-01-27T10:52:23;17.95;;;3.55;;
11504;SDS011;5809;53.262;10.408;2024-01-27T10:54:55;8.60;;;2.60;;
11504;SDS011;5809;53.262;10.408;2024-01-27T10:57:25;13.35;;;3.05;;
11504;SDS011;5809;53.262;10.408;2024-01-27T10:59:53;16.35;;;2.90;;
11504;SDS011;5809;53.262;10.408;2024-01-27T11:02:23;15.63;;;3.83;;
11504;SDS011;5809;53.262;10.408;2024-01-27T11:04:50;13.02;;;3.15;;
11504;SDS011;5809;53.262;10.408;2024-01-27T11:07:18;12.85;;;3.00;;
11504;SDS011;5809;53.262;10.408;2024-01-27T11:09:48;13.77;;;2.80;;
11504;SDS011;5809;53.262;10.408;2024-01-27T11:12:17;13.00;;;3.17;;
11504;SDS011;5809;53.262;10.408;2024-01-27T11:14:45;14.35;;;3.33;;
11504;SDS011;5809;53.262;10.408;2024-01-27T11:17:13;13.27;;;3.40;;
11504;SDS011;5809;53.262;10.408;2024-01-27T11:19:41;17.55;;;3.22;;
11504;SDS011;5809;53.262;10.408;2024-01-27T11:22:17;11.27;;;2.83;;
11504;SDS011;5809;53.262;10.408;2024-01-27T11:24:51;9.88;;;2.92;;
11504;SDS011;5809;53.262;10.408;2024-01-27T11:27:17;11.48;;;2.80;;
11504;SDS011;5809;53.262;10.408;2024-01-27T11:29:46;10.07;;;3.05;;
11504;SDS011;5809;53.262;10.408;2024-01-27T11:32:14;15.80;;;3.35;;
11504;SDS011;5809;53.262;10.408;2024-01-27T11:34:43;10.50;;;3.40;;
11504;SDS011;5809;53.262;10.408;2024-01-27T11:37:11;10.15;;;2.90;;
11504;SDS011;5809;53.262;10.408;2024-01-27T11:39:39;12.27;;;3.25;;
11504;SDS011;5809;53.262;10.408;2024-01-27T11:42:06;12.32;;;3.13;;
11504;SDS011;5809;53.262;10.408;2024-01-27T11:44:34;10.70;;;2.97;;
11504;SDS011;5809;53.262;10.408;2024-01-27T11:47:01;12.32;;;3.20;;
11504;SDS011;5809;53.262;10.408;2024-01-27T11:49:28;11.90;;;3.67;;
11504;SDS011;5809;53.262;10.408;2024-01-27T11:51:56;11.10;;;2.80;;
11504;SDS011;5809;53.262;10.408;2024-01-27T11:54:23;11.23;;;3.70;;
11504;SDS011;5809;53.262;10.408;2024-01-27T11:56:50;12.05;;;3.13;;
11504;SDS011;5809;53.262;10.408;2024-01-27T11:59:17;12.35;;;3.17;;
11504;SDS011;5809;53.262;10.408;2024-01-27T12:01:44;10.13;;;3.03;;
11504;SDS011;5809;53.262;10.408;2024-01-27T12:04:11;9.77;;;3.10;;
11504;SDS011;5809;53.262;10.408;2024-01-27T12:06:39;14.63;;;3.35;;
11504;SDS011;5809;53.262;10.408;2024-01-27T12:09:07;11.82;;;3.25;;
11504;SDS011;5809;53.262;10.408;2024-01-27T12:11:37;13.25;;;3.10;;
11504;SDS011;5809;53.262;10.408;2024-01-27T12:14:06;15.93;;;3.35;;
11504;SDS011;5809;53.262;10.408;2024-01-27T12:16:33;14.68;;;3.33;;
11504;SDS011;5809;53.262;10.408;2024-01-27T12:19:00;18.15;;;3.67;;
11504;SDS011;5809;53.262;10.408;2024-01-27T12:21:27;9.95;;;2.80;;
11504;SDS011;5809;53.262;10.408;2024-01-27T12:23:54;13.25;;;3.47;;
11504;SDS011;5809;53.262;10.408;2024-01-27T12:26:23;10.88;;;3.58;;
11504;SDS011;5809;53.262;10.408;2024-01-27T12:28:51;9.77;;;2.60;;
11504;SDS011;5809;53.262;10.408;2024-01-27T12:31:20;10.38;;;2.83;;
11504;SDS011;5809;53.262;10.408;2024-01-27T12:33:48;9.32;;;3.20;;
11504;SDS011;5809;53.262;10.408;2024-01-27T12:36:16;11.68;;;3.25;;
11504;SDS011;5809;53.262;10.408;2024-01-27T12:38:46;9.43;;;2.95;;
11504;SDS011;5809;53.262;10.408;2024-01-27T12:41:13;14.27;;;3.38;;
11504;SDS011;5809;53.262;10.408;2024-01-27T12:43:42;9.90;;;2.80;;
11504;SDS011;5809;53.262;10.408;2024-01-27T12:46:08;7.18;;;2.58;;
11504;SDS011;5809;53.262;10.408;2024-01-27T12:48:36;13.38;;;3.28;;
11504;SDS011;5809;53.262;10.408;2024-01-27T12:51:03;12.77;;;3.35;;
11504;SDS011;5809;53.262;10.408;2024-01-27T12:53:30;11.48;;;3.05;;
11504;SDS011;5809;53.262;10.408;2024-01-27T12:55:57;8.85;;;2.80;;
11504;SDS011;5809;53.262;10.408;2024-01-27T12:58:24;10.13;;;3.00;;
11504;SDS011;5809;53.262;10.408;2024-01-27T13:00:52;11.38;;;2.97;;
11504;SDS011;5809;53.262;10.408;2024-01-27T13:03:19;12.45;;;3.15;;
11504;SDS011;5809;53.262;10.408;2024-01-27T13:05:45;14.32;;;2.92;;
11504;SDS011;5809;53.262;10.408;2024-01-27T13:08:13;14.98;;;3.03;;
11504;SDS011;5809;53.262;10.408;2024-01-27T13:10:40;10.85;;;3.28;;
11504;SDS011;5809;53.262;10.408;2024-01-27T13:13:07;13.20;;;3.40;;
11504;SDS011;5809;53.262;10.408;2024-01-27T13:15:33;12.38;;;3.28;;
11504;SDS011;5809;53.262;10.408;2024-01-27T13:18:02;12.25;;;3.40;;
11504;SDS011;5809;53.262;10.408;2024-01-27T13:20:29;10.45;;;3.40;;
11504;SDS011;5809;53.262;10.408;2024-01-27T13:22:55;14.27;;;3.20;;
11504;SDS011;5809;53.262;10.408;2024-01-27T13:25:22;13.75;;;3.50;;
11504;SDS011;5809;53.262;10.408;2024-01-27T13:27:49;10.65;;;3.30;;
11504;SDS011;5809;53.262;10.408;2024-01-27T13:30:16;14.38;;;3.28;;
11504;SDS011;5809;53.262;10.408;2024-01-27T13:32:43;10.85;;;3.25;;
11504;SDS011;5809;53.262;10.408;2024-01-27T13:35:11;14.02;;;3.58;;
11504;SDS011;5809;53.262;10.408;2024-01-27T13:37:38;12.38;;;3.38;;
11504;SDS011;5809;53.262;10.408;2024-01-27T13:40:05;8.60;;;2.72;;
11504;SDS011;5809;53.262;10.408;2024-01-27T13:42:34;11.70;;;3.17;;
11504;SDS011;5809;53.262;10.408;2024-01-27T13:45:01;15.05;;;3.22;;
11504;SDS011;5809;53.262;10.408;2024-01-27T13:47:29;11.35;;;3.10;;
11504;SDS011;5809;53.262;10.408;2024-01-27T13:49:56;12.32;;;3.00;;
11504;SDS011;5809;53.262;10.408;2024-01-27T13:52:25;10.70;;;2.88;;
11504;SDS011;5809;53.262;10.408;2024-01-27T13:54:54;9.70;;;2.78;;
11504;SDS011;5809;53.262;10.408;2024-01-27T13:57:20;12.20;;;2.92;;
11504;SDS011;5809;53.262;10.408;2024-01-27T13:59:47;16.20;;;3.78;;
11504;SDS011;5809;53.262;10.408;2024-01-27T14:02:14;10.80;;;3.10;;
11504;SDS011;5809;53.262;10.408;2024-01-27T14:04:41;14.95;;;3.10;;
11504;SDS011;5809;53.262;10.408;2024-01-27T14:07:08;11.38;;;2.90;;
11504;SDS011;5809;53.262;10.408;2024-01-27T14:09:36;10.07;;;3.17;;
11504;SDS011;5809;53.262;10.408;2024-01-27T14:12:04;11.25;;;2.90;;
11504;SDS011;5809;53.262;10.408;2024-01-27T14:14:31;13.30;;;3.38;;
11504;SDS011;5809;53.262;10.408;2024-01-27T14:16:58;11.88;;;2.90;;
11504;SDS011;5809;53.262;10.408;2024-01-27T14:19:25;13.43;;;3.28;;
11504;SDS011;5809;53.262;10.408;2024-01-27T14:21:51;12.27;;;3.00;;
11504;SDS011;5809;53.262;10.408;2024-01-27T14:24:18;14.40;;;3.22;;
11504;SDS011;5809;53.262;10.408;2024-01-27T14:26:46;9.70;;;2.90;;
11504;SDS011;5809;53.262;10.408;2024-01-27T14:29:14;9.85;;;2.55;;
11504;SDS011;5809;53.262;10.408;2024-01-27T14:31:42;11.15;;;3.00;;
11504;SDS011;5809;53.262;10.408;2024-01-27T14:34:08;12.73;;;3.10;;
11504;SDS011;5809;53.262;10.408;2024-01-27T14:36:35;10.88;;;3.15;;